Love Boat — OT3861 — position and weather

sailwx.info

Track history (hours):
 
Tides and Currents Weather Stations Pressure Air Temp Water Temp Dewpoint Dewpoint Depression Visibility Wind Speed Wind Dir Waves Ship Positions

Love Boat

Last reported at 2016-Feb-03 11:04 UTC. Time now 2016-Feb-07 05:53 UTC.
Position N 50°49' E 007°01'.

Length 110 m.

Type: Ship. MMSI: 205386190.

Date/timePositionNaut miles runAvg speedWind from/ knotsBaromVisibWave heightAir tempDewpointWater temp
2016-Feb-03 11:04N 50°49' E 007°01'2 3.5
2016-Feb-03 10:28N 50°51' E 006°59'4 3.4
2016-Feb-03 09:23N 50°54' E 007°02'4 4.0
2016-Feb-03 08:24N 50°57' E 006°58'16 3.0
2016-Feb-03 03:16N 51°11' E 006°48'3 3.7
2016-Feb-03 02:34N 51°12' E 006°44'3 2.5
2016-Feb-03 01:33N 51°14' E 006°46'19 2.2
2016-Feb-02 16:33N 51°33' E 006°41'19 3.7
2016-Feb-02 11:24N 51°47' E 006°19'9 4.9
2016-Feb-02 09:32N 51°51' E 006°06'15 4.9
2016-Feb-02 06:23N 51°54' E 005°42'12 5.3
2016-Feb-02 04:10N 51°50' E 005°24'3 4.6
2016-Feb-02 03:33N 51°49' E 005°20'6 5.5
2016-Feb-02 02:33N 51°49' E 005°11'0 0.0
2016-Feb-02 01:33N 51°49' E 005°11'0 0.0
2016-Feb-02 00:33N 51°49' E 005°11'0 0.0
2016-Feb-01 23:31N 51°49' E 005°11'0 0.0
2016-Feb-01 22:30N 51°49' E 005°11'5 4.9
2016-Feb-01 21:33N 51°49' E 005°03'6 6.3
2016-Feb-01 20:33N 51°49' E 004°53'6 6.1
2016-Feb-01 19:34N 51°46' E 004°45'7 6.9
2016-Feb-01 18:34N 51°42' E 004°35'7 6.7
2016-Feb-01 17:33N 51°41' E 004°25'11 5.0
2016-Feb-01 15:22N 51°33' E 004°14'6 6.8
2016-Feb-01 14:33N 51°27' E 004°14'3 2.2
2016-Feb-01 13:09N 51°24' E 004°14'4 6.3
2016-Feb-01 12:33N 51°21' E 004°18'1 1.3
2016-Feb-01 11:33N 51°20' E 004°18'0 0.0
2016-Feb-01 10:33N 51°20' E 004°18'0 0.0
2016-Feb-01 09:33N 51°20' E 004°18'0 0.1
2016-Feb-01 08:33N 51°20' E 004°19'0 0.0
2016-Feb-01 07:33N 51°20' E 004°19'1 0.6
2016-Feb-01 06:33N 51°19' E 004°19'0 0.0
2016-Feb-01 05:34N 51°19' E 004°19'0 0.0
2016-Feb-01 04:33N 51°19' E 004°19'0 0.0
2016-Feb-01 03:34N 51°19' E 004°19'0 0.0
2016-Feb-01 02:34N 51°19' E 004°19'0 0.0
2016-Feb-01 01:34N 51°19' E 004°19'0 0.0
2016-Feb-01 00:33N 51°19' E 004°19'0 0.0
2016-Jan-31 23:33N 51°19' E 004°19'0 0.0
2016-Jan-31 22:33N 51°19' E 004°19'0 0.0
2016-Jan-31 21:33N 51°19' E 004°19'0 0.0
2016-Jan-31 20:34N 51°19' E 004°19'0 0.0
2016-Jan-31 19:33N 51°19' E 004°19'0 0.0
2016-Jan-31 18:33N 51°19' E 004°19'0 0.0
2016-Jan-31 17:34N 51°19' E 004°19'0 0.0
2016-Jan-31 16:34N 51°19' E 004°19'0 0.0
2016-Jan-31 15:34N 51°19' E 004°19'0 0.0
2016-Jan-31 14:34N 51°19' E 004°19'0 0.0
2016-Jan-31 13:33N 51°19' E 004°19'0 0.0
2016-Jan-31 12:33N 51°19' E 004°19'0 0.0
2016-Jan-31 11:34N 51°19' E 004°19'0 0.0
2016-Jan-31 10:33N 51°19' E 004°19'0 0.0
2016-Jan-31 09:34N 51°19' E 004°19'0 0.0
2016-Jan-31 08:34N 51°19' E 004°19'0 0.0
2016-Jan-31 07:33N 51°19' E 004°19'0 0.0
2016-Jan-31 06:33N 51°19' E 004°19'0 0.0
2016-Jan-31 05:33N 51°19' E 004°19'0 0.0
2016-Jan-31 04:34N 51°19' E 004°19'0 0.0
2016-Jan-31 03:33N 51°19' E 004°19'0 0.0
2016-Jan-31 02:34N 51°19' E 004°19'0 0.0
2016-Jan-31 01:34N 51°19' E 004°19'0 0.0
2016-Jan-31 00:34N 51°19' E 004°19'0 0.0
2016-Jan-30 23:33N 51°19' E 004°19'0 0.0
2016-Jan-30 22:34N 51°19' E 004°19'0 0.0
2016-Jan-30 21:34N 51°19' E 004°19'0 0.0
2016-Jan-30 20:33N 51°19' E 004°19'0 0.0
2016-Jan-30 19:33N 51°19' E 004°19'0 0.0
2016-Jan-30 18:33N 51°19' E 004°19'0 0.0
2016-Jan-30 17:34N 51°19' E 004°19'0 0.0
2016-Jan-30 16:33N 51°19' E 004°19'0 0.0
2016-Jan-30 15:34N 51°19' E 004°19'0 0.0
2016-Jan-30 14:34N 51°19' E 004°19'0 0.0
2016-Jan-30 13:34N 51°19' E 004°19'0 0.0
2016-Jan-30 12:33N 51°19' E 004°19'0 0.0
2016-Jan-30 11:34N 51°19' E 004°19'0 0.0
2016-Jan-30 10:34N 51°19' E 004°19'8 4.1
2016-Jan-30 08:32N 51°27' E 004°14'8 7.8
2016-Jan-30 07:32N 51°35' E 004°13'6 6.4
2016-Jan-30 06:32N 51°39' E 004°20'0 0.1
2016-Jan-30 05:32N 51°39' E 004°20'0 0.0
2016-Jan-30 04:34N 51°39' E 004°20'0 0.0
2016-Jan-30 03:33N 51°39' E 004°20'0 0.0
2016-Jan-30 02:33N 51°39' E 004°20'0 0.0
2016-Jan-30 01:34N 51°39' E 004°20'0 0.0
2016-Jan-30 00:32N 51°39' E 004°20'0 0.0
2016-Jan-29 23:33N 51°39' E 004°20'0 0.0
2016-Jan-29 22:33N 51°39' E 004°20'0 0.0
2016-Jan-29 21:33N 51°39' E 004°20'2 2.2
2016-Jan-29 20:33N 51°40' E 004°23'4 4.2
2016-Jan-29 19:34N 51°42' E 004°29'6 6.3
2016-Jan-29 18:34N 51°45' E 004°38'7 6.6
2016-Jan-29 17:33N 51°52' E 004°39'7 6.7
2016-Jan-29 16:33N 51°54' E 004°29'3 2.6
2016-Jan-29 15:33N 51°53' E 004°25'0 0.0
2016-Jan-29 14:33N 51°53' E 004°25'0 0.0
2016-Jan-29 13:33N 51°53' E 004°25'0 0.0
2016-Jan-29 12:33N 51°53' E 004°25'0 0.0
2016-Jan-29 11:33N 51°53' E 004°25'0 0.0
2016-Jan-29 10:33N 51°53' E 004°25'5 4.8
2016-Jan-29 09:33N 51°54' E 004°32'7 6.8
2016-Jan-29 08:34N 51°50' E 004°40'6 5.7
2016-Jan-29 07:33N 51°44' E 004°38'7 6.6
2016-Jan-29 06:32N 51°42' E 004°28'19 4.7
2016-Jan-29 02:27N 51°36' E 003°58'6 6.1
2016-Jan-29 01:33N 51°31' E 004°01'4 4.3
2016-Jan-29 00:33N 51°27' E 003°59'6 6.3
2016-Jan-28 23:33N 51°22' E 003°52'6 6.1
2016-Jan-28 22:33N 51°25' E 003°43'3 2.7
2016-Jan-28 21:33N 51°27' E 003°44'0 0.0
2016-Jan-28 20:33N 51°27' E 003°44'0 0.0
2016-Jan-28 19:33N 51°27' E 003°44'0 0.0
2016-Jan-28 18:33N 51°27' E 003°44'0 0.0
2016-Jan-28 17:33N 51°27' E 003°44'0 0.0
2016-Jan-28 16:33N 51°27' E 003°44'0 0.0
2016-Jan-28 15:33N 51°27' E 003°44'0 0.0
2016-Jan-28 14:33N 51°27' E 003°44'0 0.0
2016-Jan-28 13:33N 51°27' E 003°44'0 0.0
2016-Jan-28 12:33N 51°27' E 003°44'0 0.0
2016-Jan-28 11:33N 51°27' E 003°44'0 0.0
2016-Jan-28 10:33N 51°27' E 003°44'0 0.0
2016-Jan-28 09:33N 51°27' E 003°44'1 1.5
2016-Jan-28 08:33N 51°28' E 003°41'9 8.8
2016-Jan-28 07:33N 51°22' E 003°53'7 6.9
2016-Jan-28 06:33N 51°27' E 004°01'0 0.0
2016-Jan-28 05:33N 51°27' E 004°01'0 0.0
2016-Jan-28 04:33N 51°27' E 004°01'0 0.0
2016-Jan-28 03:33N 51°27' E 004°01'0 0.0
2016-Jan-28 02:33N 51°27' E 004°01'0 0.0
2016-Jan-28 01:33N 51°27' E 004°01'0 0.0
2016-Jan-28 00:33N 51°27' E 004°01'0 0.0
2016-Jan-27 23:33N 51°27' E 004°01'1 0.5
2016-Jan-27 22:32N 51°27' E 004°01'6 5.7
2016-Jan-27 21:31N 51°33' E 003°59'10 4.8
2016-Jan-27 19:24N 51°40' E 004°11'6 7.3
2016-Jan-27 18:33N 51°40' E 004°21'3 2.8
2016-Jan-27 17:33N 51°41' E 004°25'6 6.1
2016-Jan-27 16:33N 51°42' E 004°34'6 6.2
2016-Jan-27 15:34N 51°48' E 004°38'5 5.1
2016-Jan-27 14:33N 51°53' E 004°37'5 5.3
2016-Jan-27 13:33N 51°54' E 004°29'3 2.7
2016-Jan-27 12:33N 51°53' E 004°25'0 0.0
2016-Jan-27 11:33N 51°53' E 004°25'0 0.0
2016-Jan-27 10:33N 51°53' E 004°25'0 0.0
2016-Jan-27 09:33N 51°53' E 004°25'0 0.0
2016-Jan-27 08:33N 51°53' E 004°25'0 0.0
2016-Jan-27 07:33N 51°53' E 004°25'0 0.0
2016-Jan-27 06:33N 51°53' E 004°25'0 0.0
2016-Jan-27 05:33N 51°53' E 004°25'0 0.0
2016-Jan-27 04:33N 51°53' E 004°25'0 0.0
2016-Jan-27 03:33N 51°53' E 004°25'0 0.2
2016-Jan-27 02:33N 51°54' E 004°24'5 4.7
2016-Jan-27 01:33N 51°54' E 004°32'7 7.0
2016-Jan-27 00:34N 51°49' E 004°40'7 7.2
2016-Jan-26 23:33N 51°43' E 004°36'7 6.9
2016-Jan-26 22:33N 51°42' E 004°25'1 0.8
2016-Jan-26 21:33N 51°41' E 004°24'4 4.0
2016-Jan-26 20:32N 51°39' E 004°18'13 3.8
2016-Jan-26 17:12N 51°36' E 003°58'6 9.1
2016-Jan-26 16:33N 51°30' E 004°00'4 3.8
2016-Jan-26 15:33N 51°27' E 003°59'8 7.7
2016-Jan-26 14:33N 51°23' E 003°49'6 5.7
2016-Jan-26 13:33N 51°27' E 003°44'0 0.0
2016-Jan-26 12:33N 51°27' E 003°44'0 0.0
2016-Jan-26 11:33N 51°27' E 003°44'0 0.0
2016-Jan-26 10:33N 51°27' E 003°44'0 0.0
2016-Jan-26 09:33N 51°27' E 003°44'0 0.0
2016-Jan-26 08:34N 51°27' E 003°44'0 0.0
2016-Jan-26 07:34N 51°27' E 003°44'0 0.0
2016-Jan-26 06:33N 51°27' E 003°44'0 0.0
2016-Jan-26 05:33N 51°27' E 003°44'0 0.0
2016-Jan-26 04:33N 51°27' E 003°44'0 0.0
2016-Jan-26 03:33N 51°27' E 003°44'0 0.0
2016-Jan-26 02:33N 51°27' E 003°44'0 0.0
2016-Jan-26 01:33N 51°27' E 003°44'0 0.0
2016-Jan-26 00:33N 51°27' E 003°44'2 2.3
2016-Jan-25 23:33N 51°25' E 003°43'7 6.8
2016-Jan-25 22:33N 51°22' E 003°53'7 6.5
2016-Jan-25 21:33N 51°27' E 004°01'5 4.9
2016-Jan-25 20:32N 51°32' E 004°00'10 4.7
2016-Jan-25 18:25N 51°40' E 004°10'7 7.8
2016-Jan-25 17:33N 51°40' E 004°21'5 4.7
2016-Jan-25 16:33N 51°42' E 004°27'7 7.2
2016-Jan-25 15:33N 51°45' E 004°38'6 6.2
2016-Jan-25 14:33N 51°51' E 004°39'6 5.6
2016-Jan-25 13:33N 51°54' E 004°32'4 4.4
2016-Jan-25 12:33N 51°53' E 004°25'0 0.1
2016-Jan-25 11:33N 51°53' E 004°25'0 0.0
2016-Jan-25 10:33N 51°53' E 004°25'0 0.0
2016-Jan-25 09:33N 51°53' E 004°25'0 0.0
2016-Jan-25 08:33N 51°53' E 004°25'0 0.0
2016-Jan-25 07:33N 51°53' E 004°25'0 0.0
2016-Jan-25 06:33N 51°53' E 004°25'0 0.0
2016-Jan-25 05:33N 51°53' E 004°25'0 0.0
2016-Jan-25 04:33N 51°53' E 004°25'0 0.0
2016-Jan-25 03:34N 51°53' E 004°25'0 0.0
2016-Jan-25 02:34N 51°53' E 004°25'0 0.0
2016-Jan-25 01:33N 51°53' E 004°25'0 0.0
2016-Jan-25 00:33N 51°53' E 004°25'0 0.0
2016-Jan-24 23:33N 51°53' E 004°25'0 0.0
2016-Jan-24 22:33N 51°53' E 004°25'0 0.0
2016-Jan-24 21:33N 51°53' E 004°25'0 0.0
2016-Jan-24 20:33N 51°53' E 004°25'0 0.0
2016-Jan-24 19:34N 51°53' E 004°25'3 2.9
2016-Jan-24 18:34N 51°55' E 004°29'2 1.9
2016-Jan-24 17:33N 51°54' E 004°32'2 1.9
2016-Jan-24 16:33N 51°54' E 004°35'5 4.6
2016-Jan-24 15:33N 51°51' E 004°40'5 5.4
2016-Jan-24 14:33N 51°45' E 004°38'6 5.8
2016-Jan-24 13:33N 51°42' E 004°31'3 3.3
2016-Jan-24 12:33N 51°42' E 004°25'  
Track history (hours):
 
Tides and Currents Weather Stations Pressure Air Temp Water Temp Dewpoint Dewpoint Depression Visibility Wind Speed Wind Dir Waves Ship Positions

Love Boat

Last reported at 2016-Feb-03 11:04 UTC. Time now 2016-Feb-07 05:53 UTC.
Position N 50°49' E 007°01'.

Length 110 m.

Type: Ship. MMSI: 205386190.

Date/timePositionNaut miles runAvg speedWind from/ knotsBaromVisibWave heightAir tempDewpointWater temp
2016-Feb-03 11:04N 50°49' E 007°01'2 3.5
2016-Feb-03 10:28N 50°51' E 006°59'4 3.4
2016-Feb-03 09:23N 50°54' E 007°02'4 4.0
2016-Feb-03 08:24N 50°57' E 006°58'16 3.0
2016-Feb-03 03:16N 51°11' E 006°48'3 3.7
2016-Feb-03 02:34N 51°12' E 006°44'3 2.5
2016-Feb-03 01:33N 51°14' E 006°46'19 2.2
2016-Feb-02 16:33N 51°33' E 006°41'19 3.7
2016-Feb-02 11:24N 51°47' E 006°19'9 4.9
2016-Feb-02 09:32N 51°51' E 006°06'15 4.9
2016-Feb-02 06:23N 51°54' E 005°42'12 5.3
2016-Feb-02 04:10N 51°50' E 005°24'3 4.6
2016-Feb-02 03:33N 51°49' E 005°20'6 5.5
2016-Feb-02 02:33N 51°49' E 005°11'0 0.0
2016-Feb-02 01:33N 51°49' E 005°11'0 0.0
2016-Feb-02 00:33N 51°49' E 005°11'0 0.0
2016-Feb-01 23:31N 51°49' E 005°11'0 0.0
2016-Feb-01 22:30N 51°49' E 005°11'5 4.9
2016-Feb-01 21:33N 51°49' E 005°03'6 6.3
2016-Feb-01 20:33N 51°49' E 004°53'6 6.1
2016-Feb-01 19:34N 51°46' E 004°45'7 6.9
2016-Feb-01 18:34N 51°42' E 004°35'7 6.7
2016-Feb-01 17:33N 51°41' E 004°25'11 5.0
2016-Feb-01 15:22N 51°33' E 004°14'6 6.8
2016-Feb-01 14:33N 51°27' E 004°14'3 2.2
2016-Feb-01 13:09N 51°24' E 004°14'4 6.3
2016-Feb-01 12:33N 51°21' E 004°18'1 1.3
2016-Feb-01 11:33N 51°20' E 004°18'0 0.0
2016-Feb-01 10:33N 51°20' E 004°18'0 0.0
2016-Feb-01 09:33N 51°20' E 004°18'0 0.1
2016-Feb-01 08:33N 51°20' E 004°19'0 0.0
2016-Feb-01 07:33N 51°20' E 004°19'1 0.6
2016-Feb-01 06:33N 51°19' E 004°19'0 0.0
2016-Feb-01 05:34N 51°19' E 004°19'0 0.0
2016-Feb-01 04:33N 51°19' E 004°19'0 0.0
2016-Feb-01 03:34N 51°19' E 004°19'0 0.0
2016-Feb-01 02:34N 51°19' E 004°19'0 0.0
2016-Feb-01 01:34N 51°19' E 004°19'0 0.0
2016-Feb-01 00:33N 51°19' E 004°19'0 0.0
2016-Jan-31 23:33N 51°19' E 004°19'0 0.0
2016-Jan-31 22:33N 51°19' E 004°19'0 0.0
2016-Jan-31 21:33N 51°19' E 004°19'0 0.0
2016-Jan-31 20:34N 51°19' E 004°19'0 0.0
2016-Jan-31 19:33N 51°19' E 004°19'0 0.0
2016-Jan-31 18:33N 51°19' E 004°19'0 0.0
2016-Jan-31 17:34N 51°19' E 004°19'0 0.0
2016-Jan-31 16:34N 51°19' E 004°19'0 0.0
2016-Jan-31 15:34N 51°19' E 004°19'0 0.0
2016-Jan-31 14:34N 51°19' E 004°19'0 0.0
2016-Jan-31 13:33N 51°19' E 004°19'0 0.0
2016-Jan-31 12:33N 51°19' E 004°19'0 0.0
2016-Jan-31 11:34N 51°19' E 004°19'0 0.0
2016-Jan-31 10:33N 51°19' E 004°19'0 0.0
2016-Jan-31 09:34N 51°19' E 004°19'0 0.0
2016-Jan-31 08:34N 51°19' E 004°19'0 0.0
2016-Jan-31 07:33N 51°19' E 004°19'0 0.0
2016-Jan-31 06:33N 51°19' E 004°19'0 0.0
2016-Jan-31 05:33N 51°19' E 004°19'0 0.0
2016-Jan-31 04:34N 51°19' E 004°19'0 0.0
2016-Jan-31 03:33N 51°19' E 004°19'0 0.0
2016-Jan-31 02:34N 51°19' E 004°19'0 0.0
2016-Jan-31 01:34N 51°19' E 004°19'0 0.0
2016-Jan-31 00:34N 51°19' E 004°19'0 0.0
2016-Jan-30 23:33N 51°19' E 004°19'0 0.0
2016-Jan-30 22:34N 51°19' E 004°19'0 0.0
2016-Jan-30 21:34N 51°19' E 004°19'0 0.0
2016-Jan-30 20:33N 51°19' E 004°19'0 0.0
2016-Jan-30 19:33N 51°19' E 004°19'0 0.0
2016-Jan-30 18:33N 51°19' E 004°19'0 0.0
2016-Jan-30 17:34N 51°19' E 004°19'0 0.0
2016-Jan-30 16:33N 51°19' E 004°19'0 0.0
2016-Jan-30 15:34N 51°19' E 004°19'0 0.0
2016-Jan-30 14:34N 51°19' E 004°19'0 0.0
2016-Jan-30 13:34N 51°19' E 004°19'0 0.0
2016-Jan-30 12:33N 51°19' E 004°19'0 0.0
2016-Jan-30 11:34N 51°19' E 004°19'0 0.0
2016-Jan-30 10:34N 51°19' E 004°19'8 4.1
2016-Jan-30 08:32N 51°27' E 004°14'8 7.8
2016-Jan-30 07:32N 51°35' E 004°13'6 6.4
2016-Jan-30 06:32N 51°39' E 004°20'0 0.1
2016-Jan-30 05:32N 51°39' E 004°20'0 0.0
2016-Jan-30 04:34N 51°39' E 004°20'0 0.0
2016-Jan-30 03:33N 51°39' E 004°20'0 0.0
2016-Jan-30 02:33N 51°39' E 004°20'0 0.0
2016-Jan-30 01:34N 51°39' E 004°20'0 0.0
2016-Jan-30 00:32N 51°39' E 004°20'0 0.0
2016-Jan-29 23:33N 51°39' E 004°20'0 0.0
2016-Jan-29 22:33N 51°39' E 004°20'0 0.0
2016-Jan-29 21:33N 51°39' E 004°20'2 2.2
2016-Jan-29 20:33N 51°40' E 004°23'4 4.2
2016-Jan-29 19:34N 51°42' E 004°29'6 6.3
2016-Jan-29 18:34N 51°45' E 004°38'7 6.6
2016-Jan-29 17:33N 51°52' E 004°39'7 6.7
2016-Jan-29 16:33N 51°54' E 004°29'3 2.6
2016-Jan-29 15:33N 51°53' E 004°25'0 0.0
2016-Jan-29 14:33N 51°53' E 004°25'0 0.0
2016-Jan-29 13:33N 51°53' E 004°25'0 0.0
2016-Jan-29 12:33N 51°53' E 004°25'0 0.0
2016-Jan-29 11:33N 51°53' E 004°25'0 0.0
2016-Jan-29 10:33N 51°53' E 004°25'5 4.8
2016-Jan-29 09:33N 51°54' E 004°32'7 6.8
2016-Jan-29 08:34N 51°50' E 004°40'6 5.7
2016-Jan-29 07:33N 51°44' E 004°38'7 6.6
2016-Jan-29 06:32N 51°42' E 004°28'19 4.7
2016-Jan-29 02:27N 51°36' E 003°58'6 6.1
2016-Jan-29 01:33N 51°31' E 004°01'4 4.3
2016-Jan-29 00:33N 51°27' E 003°59'6 6.3
2016-Jan-28 23:33N 51°22' E 003°52'6 6.1
2016-Jan-28 22:33N 51°25' E 003°43'3 2.7
2016-Jan-28 21:33N 51°27' E 003°44'0 0.0
2016-Jan-28 20:33N 51°27' E 003°44'0 0.0
2016-Jan-28 19:33N 51°27' E 003°44'0 0.0
2016-Jan-28 18:33N 51°27' E 003°44'0 0.0
2016-Jan-28 17:33N 51°27' E 003°44'0 0.0
2016-Jan-28 16:33N 51°27' E 003°44'0 0.0
2016-Jan-28 15:33N 51°27' E 003°44'0 0.0
2016-Jan-28 14:33N 51°27' E 003°44'0 0.0
2016-Jan-28 13:33N 51°27' E 003°44'0 0.0
2016-Jan-28 12:33N 51°27' E 003°44'0 0.0
2016-Jan-28 11:33N 51°27' E 003°44'0 0.0
2016-Jan-28 10:33N 51°27' E 003°44'0 0.0
2016-Jan-28 09:33N 51°27' E 003°44'1 1.5
2016-Jan-28 08:33N 51°28' E 003°41'9 8.8
2016-Jan-28 07:33N 51°22' E 003°53'7 6.9
2016-Jan-28 06:33N 51°27' E 004°01'0 0.0
2016-Jan-28 05:33N 51°27' E 004°01'0 0.0
2016-Jan-28 04:33N 51°27' E 004°01'0 0.0
2016-Jan-28 03:33N 51°27' E 004°01'0 0.0
2016-Jan-28 02:33N 51°27' E 004°01'0 0.0
2016-Jan-28 01:33N 51°27' E 004°01'0 0.0
2016-Jan-28 00:33N 51°27' E 004°01'0 0.0
2016-Jan-27 23:33N 51°27' E 004°01'1 0.5
2016-Jan-27 22:32N 51°27' E 004°01'6 5.7
2016-Jan-27 21:31N 51°33' E 003°59'10 4.8
2016-Jan-27 19:24N 51°40' E 004°11'6 7.3
2016-Jan-27 18:33N 51°40' E 004°21'3 2.8
2016-Jan-27 17:33N 51°41' E 004°25'6 6.1
2016-Jan-27 16:33N 51°42' E 004°34'6 6.2
2016-Jan-27 15:34N 51°48' E 004°38'5 5.1
2016-Jan-27 14:33N 51°53' E 004°37'5 5.3
2016-Jan-27 13:33N 51°54' E 004°29'3 2.7
2016-Jan-27 12:33N 51°53' E 004°25'0 0.0
2016-Jan-27 11:33N 51°53' E 004°25'0 0.0
2016-Jan-27 10:33N 51°53' E 004°25'0 0.0
2016-Jan-27 09:33N 51°53' E 004°25'0 0.0
2016-Jan-27 08:33N 51°53' E 004°25'0 0.0
2016-Jan-27 07:33N 51°53' E 004°25'0 0.0
2016-Jan-27 06:33N 51°53' E 004°25'0 0.0
2016-Jan-27 05:33N 51°53' E 004°25'0 0.0
2016-Jan-27 04:33N 51°53' E 004°25'0 0.0
2016-Jan-27 03:33N 51°53' E 004°25'0 0.2
2016-Jan-27 02:33N 51°54' E 004°24'5 4.7
2016-Jan-27 01:33N 51°54' E 004°32'7 7.0
2016-Jan-27 00:34N 51°49' E 004°40'7 7.2
2016-Jan-26 23:33N 51°43' E 004°36'7 6.9
2016-Jan-26 22:33N 51°42' E 004°25'1 0.8
2016-Jan-26 21:33N 51°41' E 004°24'4 4.0
2016-Jan-26 20:32N 51°39' E 004°18'13 3.8
2016-Jan-26 17:12N 51°36' E 003°58'6 9.1
2016-Jan-26 16:33N 51°30' E 004°00'4 3.8
2016-Jan-26 15:33N 51°27' E 003°59'8 7.7
2016-Jan-26 14:33N 51°23' E 003°49'6 5.7
2016-Jan-26 13:33N 51°27' E 003°44'0 0.0
2016-Jan-26 12:33N 51°27' E 003°44'0 0.0
2016-Jan-26 11:33N 51°27' E 003°44'0 0.0
2016-Jan-26 10:33N 51°27' E 003°44'0 0.0
2016-Jan-26 09:33N 51°27' E 003°44'0 0.0
2016-Jan-26 08:34N 51°27' E 003°44'0 0.0
2016-Jan-26 07:34N 51°27' E 003°44'0 0.0
2016-Jan-26 06:33N 51°27' E 003°44'0 0.0
2016-Jan-26 05:33N 51°27' E 003°44'0 0.0
2016-Jan-26 04:33N 51°27' E 003°44'0 0.0
2016-Jan-26 03:33N 51°27' E 003°44'0 0.0
2016-Jan-26 02:33N 51°27' E 003°44'0 0.0
2016-Jan-26 01:33N 51°27' E 003°44'0 0.0
2016-Jan-26 00:33N 51°27' E 003°44'2 2.3
2016-Jan-25 23:33N 51°25' E 003°43'7 6.8
2016-Jan-25 22:33N 51°22' E 003°53'7 6.5
2016-Jan-25 21:33N 51°27' E 004°01'5 4.9
2016-Jan-25 20:32N 51°32' E 004°00'10 4.7
2016-Jan-25 18:25N 51°40' E 004°10'7 7.8
2016-Jan-25 17:33N 51°40' E 004°21'5 4.7
2016-Jan-25 16:33N 51°42' E 004°27'7 7.2
2016-Jan-25 15:33N 51°45' E 004°38'6 6.2
2016-Jan-25 14:33N 51°51' E 004°39'6 5.6
2016-Jan-25 13:33N 51°54' E 004°32'4 4.4
2016-Jan-25 12:33N 51°53' E 004°25'0 0.1
2016-Jan-25 11:33N 51°53' E 004°25'0 0.0
2016-Jan-25 10:33N 51°53' E 004°25'0 0.0
2016-Jan-25 09:33N 51°53' E 004°25'0 0.0
2016-Jan-25 08:33N 51°53' E 004°25'0 0.0
2016-Jan-25 07:33N 51°53' E 004°25'0 0.0
2016-Jan-25 06:33N 51°53' E 004°25'0 0.0
2016-Jan-25 05:33N 51°53' E 004°25'0 0.0
2016-Jan-25 04:33N 51°53' E 004°25'0 0.0
2016-Jan-25 03:34N 51°53' E 004°25'0 0.0
2016-Jan-25 02:34N 51°53' E 004°25'0 0.0
2016-Jan-25 01:33N 51°53' E 004°25'0 0.0
2016-Jan-25 00:33N 51°53' E 004°25'0 0.0
2016-Jan-24 23:33N 51°53' E 004°25'0 0.0
2016-Jan-24 22:33N 51°53' E 004°25'0 0.0
2016-Jan-24 21:33N 51°53' E 004°25'0 0.0
2016-Jan-24 20:33N 51°53' E 004°25'0 0.0
2016-Jan-24 19:34N 51°53' E 004°25'3 2.9
2016-Jan-24 18:34N 51°55' E 004°29'2 1.9
2016-Jan-24 17:33N 51°54' E 004°32'2 1.9
2016-Jan-24 16:33N 51°54' E 004°35'5 4.6
2016-Jan-24 15:33N 51°51' E 004°40'5 5.4
2016-Jan-24 14:33N 51°45' E 004°38'6 5.8
2016-Jan-24 13:33N 51°42' E 004°31'3 3.3
2016-Jan-24 12:33N 51°42' E 004°25'  

Dump ship's entire track history